Aviation Digital Data Service (ADDS)

Output produced by METARs form (0018 UTC 17 July 2019)
found at http://www.aviationweather.gov/metar/data/
 
DAUA 170000Z 05008KT CAVOK 37/// Q1007
TAF DAUA 162300Z 1700/1724 36006KT CAVOK 
     BECMG 1701/1703 14012KT 
     PROB030 
     TEMPO 1702/1706 12015G25KT 5000 DRSA 
     PROB40 1707/1712 16022KT 3000 DRSA 
     BECMG 1714/1717 22010KT
       
DABB 170000Z 22004KT 8000 FEW026 20/17 Q1015
TAF DABB 162300Z 1700/1724 22008KT 8000 NSC 
     PROB40 
     TEMPO 1702/1707 2000 BR SCT008 
     BECMG 1710/1712 06012KT 
     TEMPO 1715/1724 FEW030TCU BKN030 
     BECMG 1720/1722 14006KT
       
DABT 170000Z 00000KT CAVOK 17/10 Q1019
TAF DABT 162300Z 1700/1724 20008KT CAVOK 
     BECMG 1710/1712 28012KT 
     TEMPO 1712/1724 FEW030TCU 
     PROB30 
     TEMPO 1716/1724 4000 -TSRA FEW023CB BKN030 
     BECMG 1720/1722 14006KT
       
DAOR 170000Z 11009KT 6000 NSC 36/03 Q1015
TAF DAOR 162300Z 1700/1709 12008KT 6000 FEW033 SCT100 
     PROB30 1700/1703 3000 HZ
       
DAAE 170000Z 20004KT CAVOK 21/15 Q1015
TAF DAAE 162300Z 1700/1724 24008KT CAVOK 
     BECMG 1710/1712 08012KT 
     TEMPO 1712/1724 FEW030TCU 
     PROB30 
     TEMPO 1716/1724 4000 -TSRA FEW023CB BKN030 
     BECMG 1720/1722 20006KT
       
DAUB 170000Z 12006KT CAVOK 28/09 Q1013
TAF DAUB 162300Z 1700/1724 12012KT CAVOK 
     TEMPO 1712/1724 FEW033TCU 
     PROB30 
     TEMPO 1716/1724 4000 -TSRA FEW030CB BKN033 
     BECMG 1720/1722 24008KT
       
TAF DATM 161700Z 1618/1703 22010KT 3000 HZ FEW046TCU SCT100 
     PROB40 
     TEMPO 1618/1621 20020G30KT 0800 BLSA FEW040CB 
     BECMG 1622/1624 6000 NSW SCT046
       
TAF DAAD 161700Z 1618/1703 02014KT 9999 FEW030 
     BECMG 1620/1622 VRB02KT
       
DAOI 170000Z 06007KT CAVOK 30/10 Q1013
TAF DAOI 162300Z 1700/1724 06006KT CAVOK 
     BECMG 1703/1705 24010KT 
     BECMG 1706/1708 9999 FEW033 
     BECMG 1712/1714 30010KT 
     PROB40 
     TEMPO 1712/1718 28015G25KT 6000 -TSRA FEW030CB SCT033
       
DABC 170000Z 16003KT 130V210 CAVOK 15/12 Q1019
TAF DABC 162300Z 1700/1724 24008KT CAVOK 
     BECMG 1710/1712 04012KT 
     TEMPO 1714/1724 FEW030TCU 
     PROB30 
     TEMPO 1718/1724 4000 -TSRA FEW023CB BKN030 
     BECMG 1720/1722 14006KT
       
DAAG 170000Z 09006KT CAVOK 23/17 Q1014
TAF DAAG 162300Z 1700/1724 08008KT CAVOK 
     BECMG 1708/1711 02012KT 
     PROB40 
     TEMPO 1712/1716 06015G25KT 
     PROB30 
     TEMPO 1715/1720 FEW030CB
       
DAAJ 170000Z 02003KT CAVOK 28/M01 Q1015
TAF DAAJ 162300Z 1700/1724 04008KT CAVOK 
     BECMG 1714/1716 04014KT 
     PROB30 
     TEMPO 1716/1718 04015G25KT 5000 DRSA
       
DAUE 170000Z 07010KT CAVOK 33/03 Q1013
DAUO 170000Z 09010KT CAVOK 32/11 Q1012
TAF DAUO 162300Z 1700/1709 08008KT CAVOK 
     BECMG 1701/1703 12016KT 
     PROB30 1702/1705 5000 DRSA
       
DAUG 170000Z 00000KT CAVOK 31/01 Q1016
TAF DAUG 162300Z 1700/1724 08008KT CAVOK 
     PROB30 
     TEMPO 1710/1720 FEW040CB
       
DAUH 170000Z 06005KT CAVOK 32/13 Q1013
TAF DAUH 162300Z 1700/1724 04008KT CAVOK 
     BECMG 1701/1703 12012KT 
     PROB30 
     TEMPO 1706/1710 14015G25KT 5000 DRSA 
     PROB40 
     TEMPO 1712/1716 FEW040CB
       
DAAP 170000Z 04012KT CAVOK 35/05 Q1011
TAF DAAP 162300Z 1700/1709 04012KT CAVOK 
     PROB30 
     TEMPO 1700/1703 06015G25KT 4000 DRSA
       
DAUZ 170000Z 02015KT 8000 NSC 34/06 Q1012
TAF DAUZ 162300Z 1700/1724 02012KT 8000 NSC 
     PROB40 
     TEMPO 1700/1706 02022KT 3000 DRSA
       
DAUI 170000Z 07011KT 9000 NSC 38/// Q1008
TAF DAUI 162300Z 1700/1724 08010KT 8000 NSC 
     PROB30 
     TEMPO 1702/1706 08015G25KT 5000 DRSA 
     TEMPO 1706/1712 14022KT 3000 DRSA 
     BECMG 1715/1718 20008KT
       
DAAV 170000Z 13002KT CAVOK 21/14 Q1015
TAF DAAV 162300Z 1700/1724 20008KT CAVOK 
     BECMG 1710/1712 36012KT 
     TEMPO 1712/1724 FEW030TCU 
     PROB30 
     TEMPO 1716/1724 4000 -TSRA FEW023CB BKN030 
     BECMG 1720/1722 18006KT
       
DAUL 170000Z 09006KT CAVOK 27/10 Q1018
TAF DAUL 162300Z 1700/1709 10008KT CAVOK
       
DAOV 170000Z 21004KT 9999 FEW026 SCT100 26/10 Q1015
TAF DAOV 162300Z 1700/1709 VRB02KT 9999 SCT026 SCT100 
     PROB30 
     TEMPO 1700/1706 FEW030CB
       
DAAY 162300Z 01006KT 9999 FEW030 SCT100 29/13 Q1021
TAF DAAY 162300Z 1700/1709 VRB02KT 9999 FEW030 SCT100 
     PROB30 
     TEMPO 1700/1706 FEW030CB 
     BECMG 1706/1708 14014KT
       
DAOO 170000Z 24009KT 9999 SCT026 25/21 Q1012
TAF DAOO 162300Z 1700/1724 25010KT 9999 FEW026 
     PROB30 
     TEMPO 1700/1706 5000 BR SCT013 
     BECMG 1712/1715 33011KT
       
DAOL 170000Z 26014KT 9999 FEW030 SCT100 25/19 Q1013
DAUU 170000Z 05008KT CAVOK 31/07 Q1012
TAF DAUU 162300Z 1700/1709 06008KT 8000 NSC
       
DAAS 170000Z 02004KT CAVOK 16/05 Q1019
TAF DAAS 162300Z 1700/1724 20008KT CAVOK 
     BECMG 1710/1712 28012KT 
     TEMPO 1712/1724 FEW030TCU 
     PROB30 
     TEMPO 1716/1724 4000 -TSRA FEW023CB BKN030 
     BECMG 1720/1722 14006KT
       
DAAT 170000Z 34002KT CAVOK 28/M03 Q1021
TAF COR DAAT 162300Z 1700/1724 18008KT 9999 SCT046 
     TEMPO 1700/1706 FEW046CB 
     BECMG 1700/1703 24010KT 
     BECMG 1707/1710 32014KT 
     TEMPO 1712/1718 FEW040CB SCT046TCU 
     PROB40 
     TEMPO 1714/1718 32015G25KT 5000 -TSRA FEW040CB 
     BECMG 1719/1721 02008KT
       
DABS 170000Z 32004KT CAVOK 15/08 Q1020
TAF DABS 162300Z 1700/1724 24008KT CAVOK 
     BECMG 1710/1712 36015KT 
     TEMPO 1712/1724 36015G25KT FEW033TCU 
     PROB30 
     TEMPO 1718/1724 4000 -TSRA FEW030CB BKN033 
     BECMG 1720/1722 14006KT
       
DAOB 170000Z 09007KT CAVOK 23/05 Q1019
TAF DAOB 162300Z 1700/1724 06008KT CAVOK 
     PROB30 
     TEMPO 1702/1708 FEW026CB 
     BECMG 1710/1713 22012KT 
     TEMPO 1710/1718 FEW026CB 
     PROB40 
     TEMPO 1714/1720 26015G25KT 5000 -TSRA FEW026CB
       
TAF DAFH 161700Z 1618/1703 06008KT CAVOK
       
DAUT 170000Z 10017KT CAVOK 37/06 Q1009
TAF DAUT 162300Z 1700/1709 010016KT 8000 NSC 
     PROB30 
     TEMPO 1700/1703 10016G26KT 3000 DRSA
       
DAOF 170000Z 31016KT 7000 SCT046 SCT100 36/07 Q1011
TAF DAOF 162300Z 1700/1709 30014KT 8000 SCT046 SCT100 
     PROB30 
     TEMPO 1700/1703 5000 HZ FEW040CB
       
DAON 170000Z 33006KT 9999 FEW026 23/21 Q1014
TAF DAON 162300Z 1700/1724 VRB02KT 9999 FEW026 SCT100 
     PROB30 
     TEMPO 1706/1712 FEW030CB 
     BECMG 1712/1715 35011KT
       
DAUK 170000Z 09006KT CAVOK 29/13 Q1012
TAF DAUK 162300Z 1700/1709 08008KT CAVOK 
     BECMG 1701/1703 12016KT 
     PROB30 1702/1706 5000 DRSA